createdAt,value
2019-05-12T00:01:33.924Z,98558.67
2019-05-12T00:04:08.194Z,98567.14
2019-05-12T00:06:42.121Z,98563.09
2019-05-12T00:09:18.786Z,98572.53
2019-05-12T00:11:51.603Z,98571.69
2019-05-12T00:14:24.462Z,98571.89
2019-05-12T00:16:58.092Z,98568.96
2019-05-12T00:19:31.455Z,98575.70
2019-05-12T00:22:03.512Z,98569.69
2019-05-12T00:24:35.655Z,98565.45
2019-05-12T00:27:11.797Z,98567.62
2019-05-12T00:29:44.845Z,98577.59
2019-05-12T00:32:18.042Z,98579.52
2019-05-12T00:34:48.868Z,98577.27
2019-05-12T00:37:21.203Z,98579.35
2019-05-12T00:39:53.309Z,98581.28
2019-05-12T00:42:26.053Z,98586.83
2019-05-12T00:44:58.837Z,98592.08
2019-05-12T00:47:31.255Z,98600.52
2019-05-12T00:50:04.132Z,98596.55
2019-05-12T00:52:38.565Z,98604.49
2019-05-12T00:55:11.147Z,98604.88
2019-05-12T00:57:43.539Z,98609.56
2019-05-12T01:00:17.894Z,98618.95
2019-05-12T01:02:51.123Z,98618.39
2019-05-12T01:05:23.490Z,98628.12
2019-05-12T01:07:58.226Z,98635.83
2019-05-12T01:10:30.281Z,98636.09
2019-05-12T01:13:03.031Z,98642.95
2019-05-12T01:15:37.766Z,98644.74
2019-05-12T01:18:11.557Z,98652.92
2019-05-12T01:20:44.674Z,98659.19
2019-05-12T01:23:19.293Z,98667.94
2019-05-12T01:25:51.437Z,98664.98
2019-05-12T01:28:24.127Z,98671.09
2019-05-12T01:30:58.948Z,98671.97
2019-05-12T01:33:31.342Z,98673.16
2019-05-12T01:36:04.050Z,98671.74
2019-05-12T01:38:37.911Z,98685.28
2019-05-12T01:41:11.027Z,98684.71
2019-05-12T01:43:43.747Z,98690.50
2019-05-12T01:46:18.109Z,98689.89
2019-05-12T01:48:51.153Z,98700.82
2019-05-12T01:51:23.802Z,98707.30
2019-05-12T01:54:08.591Z,98713.56
2019-05-12T01:56:30.787Z,98719.58
2019-05-12T01:59:03.463Z,98719.46
2019-05-12T02:01:38.622Z,98724.40
2019-05-12T02:04:10.353Z,98728.24
2019-05-12T02:06:42.892Z,98728.24
2019-05-12T02:09:18.673Z,98735.23
2019-05-12T02:11:51.224Z,98737.49
2019-05-12T02:14:23.860Z,98747.75
2019-05-12T02:16:58.188Z,98751.81
2019-05-12T02:19:30.655Z,98753.73
2019-05-12T02:22:03.509Z,98761.20
2019-05-12T02:24:35.610Z,98770.45
2019-05-12T02:27:08.367Z,98770.08
2019-05-12T02:29:41.387Z,98775.95
2019-05-12T02:32:14.324Z,98777.62
2019-05-12T02:34:46.682Z,98784.84
2019-05-12T02:37:18.809Z,98795.64
2019-05-12T02:39:55.320Z,98801.16
2019-05-12T02:42:26.679Z,98805.38
2019-05-12T02:44:59.149Z,98812.08
2019-05-12T02:47:34.472Z,98814.02
2019-05-12T02:50:07.805Z,98823.61
2019-05-12T02:52:44.121Z,98824.11
2019-05-12T02:55:15.421Z,98836.81
2019-05-12T02:57:50.679Z,98838.60
2019-05-12T03:00:26.087Z,98845.20
2019-05-12T03:03:05.455Z,98858.17
2019-05-12T03:05:40.338Z,98861.16
2019-05-12T03:08:15.456Z,98862.75
2019-05-12T03:10:54.641Z,98871.38
2019-05-12T03:13:26.392Z,98874.41
2019-05-12T03:15:58.861Z,98882.56
2019-05-12T03:18:34.526Z,98893.48
2019-05-12T03:21:05.903Z,98900.93
2019-05-12T03:23:37.209Z,98898.53
2019-05-12T03:26:09.052Z,98906.45
2019-05-12T03:28:44.614Z,98910.65
2019-05-12T03:31:22.191Z,98910.06
2019-05-12T03:33:54.146Z,98920.47
2019-05-12T03:36:31.922Z,98921.08
2019-05-12T03:39:00.465Z,98926.36
2019-05-12T03:41:34.847Z,98934.28
2019-05-12T03:44:07.565Z,98932.35
2019-05-12T03:46:40.226Z,98939.92
2019-05-12T03:49:15.081Z,98946.75
2019-05-12T03:51:46.647Z,98957.31
2019-05-12T03:54:19.043Z,98964.25
2019-05-12T03:56:51.437Z,98971.95
2019-05-12T03:59:25.602Z,98981.66
2019-05-12T04:01:58.669Z,98981.88
2019-05-12T04:04:30.763Z,98988.11
2019-05-12T04:07:05.159Z,98994.25
2019-05-12T04:09:38.542Z,98998.67
2019-05-12T04:12:14.566Z,99004.42
2019-05-12T04:14:45.713Z,99005.73
2019-05-12T04:17:17.841Z,99021.36
2019-05-12T04:19:50.574Z,99018.50
2019-05-12T04:22:24.898Z,99023.41
2019-05-12T04:24:57.981Z,99024.50
2019-05-12T04:27:30.097Z,99028.30
2019-05-12T04:30:05.507Z,99034.56
2019-05-12T04:32:36.883Z,99039.48
2019-05-12T04:35:09.401Z,99045.12
2019-05-12T04:37:44.685Z,99051.59
2019-05-12T04:40:16.328Z,99048.95
2019-05-12T04:42:49.354Z,99048.37
2019-05-12T04:45:25.222Z,99054.86
2019-05-12T04:47:56.282Z,99050.05
2019-05-12T04:50:28.683Z,99047.41
2019-05-12T04:53:01.161Z,99052.08
2019-05-12T04:55:35.608Z,99060.28
2019-05-12T04:58:08.209Z,99062.42
2019-05-12T05:00:40.645Z,99074.69
2019-05-12T05:03:14.084Z,99070.56
2019-05-12T05:05:47.499Z,99073.84
2019-05-12T05:08:20.074Z,99073.38
2019-05-12T05:10:54.786Z,99077.33
2019-05-12T05:13:28.496Z,99076.89
2019-05-12T05:16:00.884Z,99076.80
2019-05-12T05:18:34.447Z,99081.97
2019-05-12T05:21:07.673Z,99083.56
2019-05-12T05:23:40.218Z,99092.58
2019-05-12T05:26:23.902Z,99098.50
2019-05-12T05:28:46.948Z,99098.61
2019-05-12T05:31:20.166Z,99100.80
2019-05-12T05:33:53.711Z,99098.92
2019-05-12T05:36:27.550Z,99107.85
2019-05-12T05:39:02.271Z,99100.41
2019-05-12T05:41:35.134Z,99102.44
2019-05-12T05:44:08.262Z,99109.27
2019-05-12T05:46:47.642Z,99108.93
2019-05-12T05:49:13.791Z,99111.82
2019-05-12T05:51:54.170Z,99113.14
2019-05-12T05:54:22.666Z,99113.42
2019-05-12T05:56:59.786Z,99123.54
2019-05-12T05:59:31.809Z,99125.11
2019-05-12T06:02:05.652Z,99124.40
2019-05-12T06:04:43.842Z,99126.58
2019-05-12T06:07:14.372Z,99125.96
2019-05-12T06:09:46.871Z,99126.23
2019-05-12T06:12:19.295Z,99129.12
2019-05-12T06:14:57.685Z,99122.85
2019-05-12T06:17:27.154Z,99126.59
2019-05-12T06:19:59.552Z,99131.91
2019-05-12T06:22:34.317Z,99133.82
2019-05-12T06:25:06.835Z,99141.91
2019-05-12T06:27:40.589Z,99147.67
2019-05-12T06:30:14.754Z,99147.20
2019-05-12T06:32:51.828Z,99160.32
2019-05-12T06:35:24.053Z,99162.47
2019-05-12T06:38:01.343Z,99159.34
2019-05-12T06:40:39.796Z,99169.84
2019-05-12T06:43:05.087Z,99170.17
2019-05-12T06:45:42.455Z,99175.34
2019-05-12T06:48:14.064Z,99178.85
2019-05-12T06:50:46.644Z,99182.56
2019-05-12T06:53:20.272Z,99184.50
2019-05-12T06:55:54.144Z,99191.15
2019-05-12T06:58:27.656Z,99191.85
2019-05-12T07:01:02.393Z,99189.32
2019-05-12T07:03:37.177Z,99197.88
2019-05-12T07:06:09.072Z,99202.50
2019-05-12T07:08:43.857Z,99204.00
2019-05-12T07:11:15.198Z,99209.48
2019-05-12T07:14:01.017Z,99210.80
2019-05-12T07:16:29.779Z,99210.81
2019-05-12T07:18:57.290Z,99215.25
2019-05-12T07:21:29.690Z,99216.69
2019-05-12T07:24:09.120Z,99221.98
2019-05-12T07:26:36.723Z,99223.44
2019-05-12T07:29:09.447Z,99232.13
2019-05-12T07:31:44.153Z,99231.39
2019-05-12T07:34:16.937Z,99232.46
2019-05-12T07:36:53.347Z,99233.09
2019-05-12T07:39:28.469Z,99241.26
2019-05-12T07:42:05.733Z,99231.25
2019-05-12T07:44:42.176Z,99239.94
2019-05-12T07:47:19.156Z,99252.11
2019-05-12T07:49:49.902Z,99252.08
2019-05-12T07:52:24.248Z,99254.25
2019-05-12T07:54:57.454Z,99260.98
2019-05-12T07:57:30.185Z,99264.26
2019-05-12T08:00:03.838Z,99268.36
2019-05-12T08:02:37.140Z,99265.52
2019-05-12T08:05:11.121Z,99270.30
2019-05-12T08:07:44.589Z,99268.92
2019-05-12T08:10:20.031Z,99273.39
2019-05-12T08:12:59.280Z,99279.52
2019-05-12T08:15:26.166Z,99279.48
2019-05-12T08:17:59.724Z,99281.02
2019-05-12T08:20:34.259Z,99282.94
2019-05-12T08:23:10.447Z,99290.66
2019-05-12T08:25:43.639Z,99290.80
2019-05-12T08:28:19.114Z,99292.86
2019-05-12T08:30:52.714Z,99294.83
2019-05-12T08:33:26.521Z,99293.83
2019-05-12T08:36:03.173Z,99299.95
2019-05-12T08:38:33.736Z,99304.12
2019-05-12T08:41:06.106Z,99307.92
2019-05-12T08:43:40.695Z,99306.34
2019-05-12T08:48:17.161Z,99299.37
2019-05-12T08:50:46.278Z,99303.85
2019-05-12T08:53:20.871Z,99306.95
2019-05-12T08:55:53.858Z,99306.34
2019-05-12T08:58:33.894Z,99303.37
2019-05-12T09:01:04.257Z,99299.88
2019-05-12T09:03:36.718Z,99312.84
2019-05-12T09:06:15.419Z,99310.27
2019-05-12T09:08:49.348Z,99322.45
2019-05-12T09:11:19.732Z,99330.85
2019-05-12T09:14:00.453Z,99328.00
2019-05-12T09:16:27.051Z,99334.38
2019-05-12T09:19:00.137Z,99337.30
2019-05-12T09:21:33.865Z,99329.67
2019-05-12T09:24:05.255Z,99332.15
2019-05-12T09:26:37.765Z,99330.63
2019-05-12T09:29:10.950Z,99339.06
2019-05-12T09:31:44.119Z,99338.37
2019-05-12T09:34:16.645Z,99332.48
2019-05-12T09:36:51.879Z,99325.14
2019-05-12T09:39:24.340Z,99342.11
2019-05-12T09:41:56.635Z,99347.73
2019-05-12T09:44:30.591Z,99350.98
2019-05-12T09:47:04.373Z,99353.22
2019-05-12T09:49:39.645Z,99362.70
2019-05-12T09:52:13.941Z,99363.59
2019-05-12T09:54:47.973Z,99366.79
2019-05-12T09:57:23.815Z,99359.53
2019-05-12T09:59:59.420Z,99365.66
2019-05-12T10:02:30.969Z,99370.26
2019-05-12T10:05:04.085Z,99368.09
2019-05-12T10:07:36.898Z,99360.44
2019-05-12T10:10:10.422Z,99373.67
2019-05-12T10:12:46.472Z,99380.48
2019-05-12T10:15:23.546Z,99374.23
2019-05-12T10:17:53.994Z,99383.83
2019-05-12T10:20:29.236Z,99387.39
2019-05-12T10:23:04.050Z,99383.37
2019-05-12T10:25:36.066Z,99397.80
2019-05-12T10:28:11.687Z,99399.90
2019-05-12T10:30:47.067Z,99401.84
2019-05-12T10:33:18.285Z,99407.63
2019-05-12T10:35:50.409Z,99409.46
2019-05-12T10:38:24.160Z,99408.59
2019-05-12T10:40:57.102Z,99407.35
2019-05-12T10:43:29.897Z,99407.96
2019-05-12T10:46:04.193Z,99401.91
2019-05-12T10:48:36.786Z,99401.12
2019-05-12T10:51:09.563Z,99407.91
2019-05-12T10:53:43.245Z,99413.48
2019-05-12T10:56:16.220Z,99408.42
2019-05-12T10:58:47.353Z,99413.16
2019-05-12T11:01:19.583Z,99413.66
2019-05-12T11:03:52.788Z,99409.36
2019-05-12T11:06:25.541Z,99404.06
2019-05-12T11:08:58.304Z,99417.04
2019-05-12T11:11:32.992Z,99411.91
2019-05-12T11:14:05.183Z,99418.48
2019-05-12T11:16:38.027Z,99422.56
2019-05-12T11:19:10.597Z,99423.41
2019-05-12T11:21:44.316Z,99423.41
2019-05-12T11:24:16.991Z,99427.17
2019-05-12T11:26:49.670Z,99417.03
2019-05-12T11:29:23.509Z,99415.41
2019-05-12T11:31:56.215Z,99420.48
2019-05-12T11:34:29.350Z,99421.25
2019-05-12T11:37:03.408Z,99419.38
2019-05-12T11:39:40.301Z,99428.73
2019-05-12T11:42:10.196Z,99420.62
2019-05-12T11:44:44.260Z,99420.33
2019-05-12T11:47:24.058Z,99410.47
2019-05-12T11:49:53.535Z,99422.10
2019-05-12T11:52:25.237Z,99418.91
2019-05-12T11:54:57.749Z,99432.79
2019-05-12T11:57:30.843Z,99418.55
2019-05-12T12:00:05.382Z,99421.59
2019-05-12T12:02:37.534Z,99416.16
2019-05-12T12:05:10.340Z,99426.22
2019-05-12T12:07:50.570Z,99426.55
2019-05-12T12:10:15.579Z,99428.69
2019-05-12T12:12:49.198Z,99443.20
2019-05-12T12:15:26.442Z,99441.67
2019-05-12T12:17:53.633Z,99434.20
2019-05-12T12:20:25.707Z,99433.59
2019-05-12T12:23:00.096Z,99433.50
2019-05-12T12:25:34.143Z,99433.93
2019-05-12T12:28:06.710Z,99441.02
2019-05-12T12:30:39.034Z,99439.40
2019-05-12T12:33:14.117Z,99452.41
2019-05-12T12:35:50.577Z,99435.09
2019-05-12T12:38:20.760Z,99429.65
2019-05-12T12:40:53.740Z,99432.77
2019-05-12T12:43:26.152Z,99452.25
2019-05-12T12:46:03.386Z,99453.73
2019-05-12T12:48:35.978Z,99449.82
2019-05-12T12:51:09.937Z,99450.31
2019-05-12T12:53:43.737Z,99455.77
2019-05-12T12:56:27.529Z,99453.08
2019-05-12T12:58:51.597Z,99454.57
2019-05-12T13:01:28.651Z,99461.28
2019-05-12T13:03:59.283Z,99461.88
2019-05-12T13:06:34.591Z,99457.75
2019-05-12T13:09:18.316Z,99460.63
2019-05-12T13:11:44.455Z,99459.84
2019-05-12T13:14:17.672Z,99456.48
2019-05-12T13:16:54.694Z,99465.17
2019-05-12T13:19:24.812Z,99475.03
2019-05-12T13:21:57.654Z,99467.92
2019-05-12T13:24:30.132Z,99471.08
2019-05-12T13:27:03.638Z,99470.66
2019-05-12T13:29:39.722Z,99468.48
2019-05-12T13:32:09.692Z,99468.09
2019-05-12T13:34:43.102Z,99473.03
2019-05-12T13:37:19.325Z,99468.90
2019-05-12T13:39:56.828Z,99472.26
2019-05-12T13:42:24.387Z,99464.52
2019-05-12T13:44:56.823Z,99472.95
2019-05-12T13:47:34.048Z,99471.16
2019-05-12T13:50:04.023Z,99483.77
2019-05-12T13:52:36.801Z,99482.07
2019-05-12T13:55:07.959Z,99476.72
2019-05-12T13:57:46.685Z,99475.91
2019-05-12T14:00:14.989Z,99476.23
2019-05-12T14:02:49.033Z,99471.88
2019-05-12T14:05:24.145Z,99479.16
2019-05-12T14:07:57.411Z,99478.95
2019-05-12T14:10:30.162Z,99477.61
2019-05-12T14:13:03.495Z,99475.72
2019-05-12T14:15:35.631Z,99480.20
2019-05-12T14:18:10.336Z,99472.86
2019-05-12T14:20:44.900Z,99468.08
2019-05-12T14:23:16.538Z,99457.38
2019-05-12T14:25:49.101Z,99480.77
2019-05-12T14:28:23.395Z,99474.96
2019-05-12T14:30:56.243Z,99464.44
2019-05-12T14:33:29.936Z,99471.95
2019-05-12T14:36:00.960Z,99461.81
2019-05-12T14:38:33.869Z,99463.28
2019-05-12T14:41:10.351Z,99471.33
2019-05-12T14:43:41.339Z,99483.24
2019-05-12T14:46:14.816Z,99493.19
2019-05-12T14:48:50.497Z,99481.44
2019-05-12T14:51:24.410Z,99473.44
2019-05-12T14:53:56.611Z,99472.26
2019-05-12T14:56:30.162Z,99482.46
2019-05-12T14:59:03.519Z,99473.50
2019-05-12T15:01:51.507Z,99486.48
2019-05-12T15:04:10.127Z,99479.15
2019-05-12T15:06:44.361Z,99480.75
2019-05-12T15:09:20.191Z,99477.60
2019-05-12T15:11:49.827Z,99474.31
2019-05-12T15:14:24.537Z,99482.04
2019-05-12T15:16:56.915Z,99471.02
2019-05-12T15:19:29.994Z,99476.98
2019-05-12T15:22:11.661Z,99467.80
2019-05-12T15:24:40.594Z,99468.91
2019-05-12T15:27:13.519Z,99457.25
2019-05-12T15:29:50.118Z,99467.23
2019-05-12T15:32:21.440Z,99473.73
2019-05-12T15:34:54.907Z,99482.55
2019-05-12T15:37:29.066Z,99487.80
2019-05-12T15:40:04.164Z,99485.92
2019-05-12T15:42:36.118Z,99472.32
2019-05-12T15:45:12.509Z,99482.89
2019-05-12T15:47:44.313Z,99483.87
2019-05-12T15:50:16.406Z,99485.64
2019-05-12T15:52:49.194Z,99478.52
2019-05-12T15:55:25.170Z,99477.09
2019-05-12T15:57:55.747Z,99472.75
2019-05-12T16:00:28.740Z,99484.38
2019-05-12T16:03:01.333Z,99491.19
2019-05-12T16:05:33.951Z,99502.34
2019-05-12T16:08:06.280Z,99500.56
2019-05-12T16:10:38.943Z,99510.80
2019-05-12T16:13:10.071Z,99513.14
2019-05-12T16:15:43.845Z,99513.56
2019-05-12T16:18:17.159Z,99519.13
2019-05-12T16:20:53.469Z,99522.02
2019-05-12T16:23:30.096Z,99517.33
2019-05-12T16:26:01.508Z,99525.45
2019-05-12T16:28:35.706Z,99525.63
2019-05-12T16:31:08.851Z,99526.37
2019-05-12T16:33:43.565Z,99522.23
2019-05-12T16:36:17.601Z,99531.03
2019-05-12T16:38:55.387Z,99542.45
2019-05-12T16:41:28.023Z,99544.56
2019-05-12T16:43:58.406Z,99553.89
2019-05-12T16:46:31.363Z,99562.81
2019-05-12T16:49:04.411Z,99559.97
2019-05-12T16:51:36.816Z,99558.91
2019-05-12T16:54:09.224Z,99556.23
2019-05-12T16:56:43.387Z,99561.23
2019-05-12T16:59:21.755Z,99563.88
2019-05-12T17:01:49.737Z,99559.84
2019-05-12T17:04:23.846Z,99567.48
2019-05-12T17:06:57.596Z,99565.02
2019-05-12T17:09:29.991Z,99567.21
2019-05-12T17:12:05.103Z,99568.22
2019-05-12T17:14:47.964Z,99569.10
2019-05-12T17:17:11.121Z,99572.75
2019-05-12T17:19:43.773Z,99578.27
2019-05-12T17:22:17.617Z,99578.81
2019-05-12T17:24:50.122Z,99582.44
2019-05-12T17:27:25.065Z,99586.41
2019-05-12T17:29:56.986Z,99590.88
2019-05-12T17:32:30.163Z,99587.63
2019-05-12T17:35:04.152Z,99597.45
2019-05-12T17:37:37.490Z,99588.34
2019-05-12T17:40:15.575Z,99598.53
2019-05-12T17:42:45.640Z,99599.25
2019-05-12T17:45:20.661Z,99594.23
2019-05-12T17:47:55.029Z,99594.88
2019-05-12T17:50:28.251Z,99600.91
2019-05-12T17:53:00.675Z,99602.17
2019-05-12T17:55:33.218Z,99607.28
2019-05-12T17:58:05.362Z,99609.77
2019-05-12T18:00:41.394Z,99615.55
2019-05-12T18:03:21.231Z,99623.55
2019-05-12T18:05:47.947Z,99624.80
2019-05-12T18:08:24.180Z,99625.98
2019-05-12T18:10:56.583Z,99626.61
2019-05-12T18:13:29.832Z,99634.04
2019-05-12T18:16:05.320Z,99644.67
2019-05-12T18:18:38.216Z,99638.98
2019-05-12T18:21:20.804Z,99648.06
2019-05-12T18:23:46.476Z,99654.06
2019-05-12T18:26:18.332Z,99647.65
2019-05-12T18:28:50.899Z,99660.36
2019-05-12T18:31:25.311Z,99660.83
2019-05-12T18:33:58.755Z,99663.74
2019-05-12T18:36:31.094Z,99668.36
2019-05-12T18:39:11.277Z,99669.97
2019-05-12T18:41:39.818Z,99675.31
2019-05-12T18:44:15.946Z,99677.65
2019-05-12T18:46:47.538Z,99678.30
2019-05-12T18:49:19.904Z,99685.19
2019-05-12T18:51:55.299Z,99687.08
2019-05-12T18:54:27.526Z,99688.99
2019-05-12T18:57:07.037Z,99691.38
2019-05-12T18:59:34.261Z,99698.39
2019-05-12T19:02:07.060Z,99698.94
2019-05-12T19:04:41.222Z,99700.61
2019-05-12T19:07:15.296Z,99716.34
2019-05-12T19:09:48.586Z,99722.49
2019-05-12T19:12:31.464Z,99727.47
2019-05-12T19:14:56.038Z,99727.59
2019-05-12T19:17:28.881Z,99730.33
2019-05-12T19:20:01.714Z,99733.20
2019-05-12T19:22:33.688Z,99735.06
2019-05-12T19:25:05.838Z,99738.60
2019-05-12T19:27:39.843Z,99737.58
2019-05-12T19:30:13.924Z,99744.64
2019-05-12T19:32:51.600Z,99743.17
2019-05-12T19:35:23.562Z,99750.66
2019-05-12T19:37:56.586Z,99745.89
2019-05-12T19:40:29.770Z,99749.03
2019-05-12T19:43:08.191Z,99756.75
2019-05-12T19:45:36.783Z,99755.33
2019-05-12T19:48:22.857Z,99757.17
2019-05-12T19:50:51.910Z,99765.70
2019-05-12T19:53:19.298Z,99772.08
2019-05-12T19:55:52.222Z,99772.55
2019-05-12T19:58:24.495Z,99785.30
2019-05-12T20:00:56.630Z,99786.90
2019-05-12T20:03:28.945Z,99790.78
2019-05-12T20:06:02.007Z,99793.06
2019-05-12T20:08:33.038Z,99796.02
2019-05-12T20:11:05.669Z,99793.70
2019-05-12T20:13:40.137Z,99801.34
2019-05-12T20:16:21.338Z,99800.74
2019-05-12T20:18:49.209Z,99808.98
2019-05-12T20:21:26.007Z,99809.48
2019-05-12T20:23:56.160Z,99807.66
2019-05-12T20:26:33.030Z,99815.19
2019-05-12T20:29:04.682Z,99812.05
2019-05-12T20:31:43.489Z,99815.07
2019-05-12T20:34:13.740Z,99813.02
2019-05-12T20:36:46.733Z,99812.42
2019-05-12T20:39:21.714Z,99811.57
2019-05-12T20:42:00.808Z,99807.81
2019-05-12T20:44:29.792Z,99819.06
2019-05-12T20:47:06.379Z,99815.80
2019-05-12T20:49:37.190Z,99816.30
2019-05-12T20:52:09.917Z,99818.94
2019-05-12T20:54:44.146Z,99820.02
2019-05-12T20:57:16.981Z,99823.52
2019-05-12T20:59:49.265Z,99828.25
2019-05-12T21:02:23.978Z,99828.01
2019-05-12T21:05:01.047Z,99831.73
2019-05-12T21:07:33.862Z,99826.77
2019-05-12T21:10:06.634Z,99833.77
2019-05-12T21:12:39.966Z,99836.30
2019-05-12T21:15:20.138Z,99831.56
2019-05-12T21:17:58.413Z,99842.55
2019-05-12T21:20:24.389Z,99843.87
2019-05-12T21:22:57.810Z,99835.07
2019-05-12T21:25:30.408Z,99841.31
2019-05-12T21:28:07.696Z,99834.37
2019-05-12T21:30:42.495Z,99836.34
2019-05-12T21:33:14.663Z,99841.77
2019-05-12T21:35:47.893Z,99839.76
2019-05-12T21:38:27.492Z,99841.87
2019-05-12T21:40:55.250Z,99837.56
2019-05-12T21:43:27.814Z,99838.87
2019-05-12T21:46:01.164Z,99844.84
2019-05-12T21:48:34.208Z,99851.03
2019-05-12T21:51:09.646Z,99850.30
2019-05-12T21:53:40.709Z,99853.39
2019-05-12T21:56:13.959Z,99858.78
2019-05-12T21:58:53.725Z,99855.99
2019-05-12T22:01:28.139Z,99860.42
2019-05-12T22:04:02.421Z,99860.28
2019-05-12T22:06:36.304Z,99862.77
2019-05-12T22:09:09.158Z,99866.39
2019-05-12T22:11:50.595Z,99866.22
2019-05-12T22:14:16.356Z,99868.69
2019-05-12T22:16:51.067Z,99868.81
2019-05-12T22:19:23.686Z,99864.00
2019-05-12T22:21:56.021Z,99878.92
2019-05-12T22:24:37.079Z,99876.34
2019-05-12T22:27:05.091Z,99878.24
2019-05-12T22:29:37.841Z,99877.98
2019-05-12T22:32:10.705Z,99879.81
2019-05-12T22:34:44.660Z,99880.45
2019-05-12T22:37:17.362Z,99886.08
2019-05-12T22:39:50.226Z,99889.98
2019-05-12T22:42:24.353Z,99891.42
2019-05-12T22:45:01.519Z,99892.80
2019-05-12T22:47:33.454Z,99885.47
2019-05-12T22:50:06.440Z,99889.91
2019-05-12T22:52:44.014Z,99893.63
2019-05-12T22:55:14.082Z,99890.62
2019-05-12T22:57:46.983Z,99893.87
2019-05-12T23:00:21.632Z,99892.16
2019-05-12T23:02:54.764Z,99894.65
2019-05-12T23:05:27.099Z,99894.23
2019-05-12T23:08:00.023Z,99896.78
2019-05-12T23:10:34.070Z,99906.61
2019-05-12T23:13:06.141Z,99909.09
2019-05-12T23:15:44.403Z,99905.38
2019-05-12T23:18:13.932Z,99913.09
2019-05-12T23:20:46.017Z,99916.91
2019-05-12T23:23:19.023Z,99912.06
2019-05-12T23:26:00.072Z,99912.09
2019-05-12T23:28:25.861Z,99921.62
2019-05-12T23:30:57.997Z,99920.89
2019-05-12T23:33:36.554Z,99920.14
2019-05-12T23:36:09.730Z,99919.03
2019-05-12T23:38:40.242Z,99920.16
2019-05-12T23:41:13.533Z,99921.33
2019-05-12T23:43:46.927Z,99918.31
2019-05-12T23:46:18.939Z,99915.46
2019-05-12T23:48:51.162Z,99917.47
2019-05-12T23:51:24.243Z,99917.47
2019-05-12T23:53:56.191Z,99916.72
2019-05-12T23:56:29.059Z,99917.19
2019-05-12T23:59:04.327Z,99914.92
